createdAt,value
2022-11-19T00:09:49.108Z,87.29
2022-11-19T00:19:52.156Z,87.22
2022-11-19T00:29:56.475Z,87.52
2022-11-19T00:40:00.422Z,87.13
2022-11-19T00:50:07.022Z,87.27
2022-11-19T01:00:12.829Z,87.61
2022-11-19T01:10:19.469Z,87.85
2022-11-19T01:20:22.827Z,87.53
2022-11-19T01:30:28.086Z,87.47
2022-11-19T01:40:31.855Z,88.46
2022-11-19T01:50:40.495Z,88.12
2022-11-19T02:00:43.941Z,88.57
2022-11-19T02:11:01.678Z,88.53
2022-11-19T02:21:27.493Z,88.55
2022-11-19T02:31:40.368Z,88.48
2022-11-19T02:41:51.838Z,88.70
2022-11-19T02:51:56.950Z,89.06
2022-11-19T03:02:17.861Z,89.24
2022-11-19T03:12:27.116Z,88.98
2022-11-19T03:22:34.003Z,90.36
2022-11-19T03:32:41.704Z,90.77
2022-11-19T03:42:47.944Z,90.07
2022-11-19T03:52:52.514Z,90.71
2022-11-19T04:02:55.607Z,91.53
2022-11-19T04:13:00.321Z,92.41
2022-11-19T04:23:03.417Z,92.80
2022-11-19T04:33:08.041Z,92.36
2022-11-19T04:43:11.087Z,91.50
2022-11-19T04:53:15.527Z,90.48
2022-11-19T05:03:20.674Z,87.95
2022-11-19T05:13:25.051Z,89.00
2022-11-19T05:23:28.075Z,88.00
2022-11-19T05:33:34.212Z,88.68
2022-11-19T05:43:37.479Z,89.04
2022-11-19T05:53:41.995Z,87.77
2022-11-19T06:03:45.117Z,85.79
2022-11-19T06:13:49.514Z,85.69
2022-11-19T06:23:52.481Z,84.99
2022-11-19T06:33:56.893Z,84.38
2022-11-19T06:43:59.832Z,83.17
2022-11-19T06:54:04.275Z,84.34
2022-11-19T07:04:07.262Z,83.72
2022-11-19T07:14:12.091Z,83.50
2022-11-19T07:24:17.262Z,83.64
2022-11-19T07:34:21.957Z,82.27
2022-11-19T07:44:25.037Z,83.11
2022-11-19T07:54:29.430Z,82.11
2022-11-19T08:04:32.482Z,80.91
2022-11-19T08:14:36.994Z,81.33
2022-11-19T08:24:40.125Z,81.28
2022-11-19T08:34:44.530Z,80.85
2022-11-19T08:44:47.435Z,80.69
2022-11-19T08:54:52.129Z,80.93
2022-11-19T09:04:55.136Z,81.10
2022-11-19T09:14:59.757Z,79.89
2022-11-19T09:25:02.959Z,79.37
2022-11-19T09:35:08.489Z,79.93
2022-11-19T09:45:19.707Z,79.89
2022-11-19T09:55:30.445Z,81.13
2022-11-19T10:05:49.582Z,84.26
2022-11-19T10:16:04.274Z,81.02
2022-11-19T10:26:12.808Z,79.69
2022-11-19T10:36:23.771Z,80.71
2022-11-19T10:46:28.605Z,79.30
2022-11-19T10:56:38.867Z,77.57
2022-11-19T11:06:52.434Z,79.42
2022-11-19T11:16:56.964Z,78.62
2022-11-19T11:27:21.964Z,79.62
2022-11-19T11:37:28.168Z,80.58
2022-11-19T11:47:35.652Z,79.41
2022-11-19T11:57:54.032Z,78.37
2022-11-19T12:08:05.158Z,78.54
2022-11-19T12:18:16.501Z,78.45
2022-11-19T12:28:45.970Z,78.95
2022-11-19T12:38:58.308Z,78.50
2022-11-19T12:49:19.531Z,77.81
2022-11-19T12:59:39.199Z,77.97
2022-11-19T13:09:48.366Z,77.60
2022-11-19T13:19:57.222Z,78.24
2022-11-19T13:30:03.167Z,77.35
2022-11-19T13:40:20.726Z,78.30
2022-11-19T13:50:29.708Z,78.09
2022-11-19T14:00:34.214Z,77.79
2022-11-19T14:10:43.592Z,78.06
2022-11-19T14:21:05.751Z,77.98
2022-11-19T14:31:08.903Z,77.73
2022-11-19T14:41:32.684Z,78.00
2022-11-19T14:51:37.340Z,77.20
2022-11-19T15:01:56.796Z,78.55
2022-11-19T15:12:01.663Z,77.95
2022-11-19T15:22:29.225Z,78.43
2022-11-19T15:32:51.606Z,77.70
2022-11-19T15:43:14.685Z,78.43
2022-11-19T15:53:20.300Z,77.67
2022-11-19T16:03:25.358Z,78.08
2022-11-19T16:13:46.166Z,77.98
2022-11-19T16:24:08.577Z,77.17
2022-11-19T16:34:20.729Z,77.41
2022-11-19T16:44:30.052Z,77.38
2022-11-19T16:54:48.465Z,77.33
2022-11-19T17:04:54.585Z,78.12
2022-11-19T17:14:59.565Z,78.26
2022-11-19T17:25:06.021Z,77.65
2022-11-19T17:35:11.244Z,78.61
2022-11-19T17:45:15.399Z,77.50
2022-11-19T17:55:22.383Z,78.71
2022-11-19T18:05:29.472Z,78.13
2022-11-19T18:15:32.477Z,78.56
2022-11-19T18:25:36.873Z,77.04
2022-11-19T18:35:39.985Z,78.00
2022-11-19T18:45:44.195Z,77.23
2022-11-19T18:55:48.461Z,79.08
2022-11-19T19:05:55.980Z,78.19
2022-11-19T19:16:01.795Z,78.39
2022-11-19T19:26:07.877Z,78.58
2022-11-19T19:36:11.456Z,78.29
2022-11-19T19:46:17.667Z,78.02
2022-11-19T19:56:22.464Z,78.64
2022-11-19T20:06:26.693Z,78.09
2022-11-19T20:16:31.941Z,77.87
2022-11-19T20:26:36.375Z,77.77
2022-11-19T20:36:39.789Z,78.08
2022-11-19T20:46:44.599Z,78.17
2022-11-19T20:56:47.901Z,78.77
2022-11-19T21:06:53.945Z,78.62
2022-11-19T21:16:57.243Z,78.23
2022-11-19T21:27:01.677Z,78.46
2022-11-19T21:37:04.523Z,77.70
2022-11-19T21:47:08.746Z,78.96
2022-11-19T21:57:11.877Z,78.59
2022-11-19T22:07:17.018Z,77.41
2022-11-19T22:17:20.043Z,77.46
2022-11-19T22:27:24.371Z,78.35
2022-11-19T22:37:27.405Z,78.75
2022-11-19T22:47:31.809Z,77.92
2022-11-19T22:57:34.850Z,77.83
2022-11-19T23:07:39.184Z,78.53
2022-11-19T23:17:43.347Z,77.68
2022-11-19T23:27:47.859Z,78.98
2022-11-19T23:37:50.932Z,78.62
2022-11-19T23:47:55.106Z,78.73
2022-11-19T23:57:58.277Z,78.98
